createdAt,value
2022-08-31T00:00:22.922Z,1.80
2022-08-31T00:03:15.718Z,2.00
2022-08-31T00:05:43.599Z,2.22
2022-08-31T00:08:10.922Z,2.00
2022-08-31T00:10:47.602Z,1.90
2022-08-31T00:13:14.928Z,1.98
2022-08-31T00:15:42.316Z,1.92
2022-08-31T00:18:16.506Z,2.10
2022-08-31T00:20:44.472Z,1.98
2022-08-31T00:23:26.513Z,1.90
2022-08-31T00:25:53.728Z,1.90
2022-08-31T00:28:21.044Z,1.95
2022-08-31T00:30:56.549Z,2.10
2022-08-31T00:33:23.759Z,2.17
2022-08-31T00:35:50.984Z,2.10
2022-08-31T00:38:24.758Z,2.05
2022-08-31T00:40:52.086Z,2.10
2022-08-31T00:43:41.636Z,2.10
2022-08-31T00:46:09.800Z,1.98
2022-08-31T00:48:39.260Z,2.00
2022-08-31T00:51:15.261Z,2.15
2022-08-31T00:53:48.038Z,2.00
2022-08-31T00:56:24.638Z,2.15
2022-08-31T00:58:54.902Z,2.20
2022-08-31T01:01:22.864Z,2.25
2022-08-31T01:03:57.708Z,2.22
2022-08-31T01:06:25.646Z,2.30
2022-08-31T01:08:54.625Z,1.83
2022-08-31T01:11:28.860Z,2.20
2022-08-31T01:13:56.366Z,2.35
2022-08-31T01:16:27.018Z,2.05
2022-08-31T01:19:01.537Z,1.67
2022-08-31T01:21:37.792Z,1.65
2022-08-31T01:24:25.608Z,1.70
2022-08-31T01:26:55.420Z,1.80
2022-08-31T01:29:23.057Z,2.00
2022-08-31T01:31:56.724Z,1.70
2022-08-31T01:34:24.103Z,1.85
2022-08-31T01:36:51.552Z,1.88
2022-08-31T01:39:25.667Z,2.40
2022-08-31T01:41:53.975Z,2.15
2022-08-31T01:44:22.999Z,1.92
2022-08-31T01:46:56.755Z,2.00
2022-08-31T01:49:24.334Z,1.92
2022-08-31T01:51:52.290Z,2.10
2022-08-31T01:54:26.677Z,2.10
2022-08-31T01:56:54.587Z,2.03
2022-08-31T01:59:22.587Z,2.50
2022-08-31T02:01:58.765Z,2.30
2022-08-31T02:04:27.243Z,2.17
2022-08-31T02:06:55.427Z,2.20
2022-08-31T02:09:29.596Z,2.00
2022-08-31T02:11:56.948Z,2.35
2022-08-31T02:14:24.088Z,2.03
2022-08-31T02:16:58.560Z,2.35
2022-08-31T02:19:25.824Z,2.20
2022-08-31T02:21:52.968Z,2.17
2022-08-31T02:24:26.778Z,2.13
2022-08-31T02:27:00.539Z,2.28
2022-08-31T02:29:34.596Z,2.00
2022-08-31T02:32:01.791Z,2.20
2022-08-31T02:34:29.419Z,2.55
2022-08-31T02:39:30.970Z,2.10
2022-08-31T02:41:59.235Z,2.22
2022-08-31T02:44:32.700Z,1.95
2022-08-31T02:47:00.764Z,2.30
2022-08-31T02:49:27.884Z,2.15
2022-08-31T02:52:01.683Z,2.15
2022-08-31T02:54:28.942Z,2.10
2022-08-31T02:56:56.075Z,2.00
2022-08-31T02:59:29.665Z,2.15
2022-08-31T03:01:57.101Z,2.03
2022-08-31T03:04:24.442Z,2.13
2022-08-31T03:07:05.574Z,1.95
2022-08-31T03:09:32.990Z,2.20
2022-08-31T03:12:00.526Z,1.83
2022-08-31T03:14:41.631Z,1.50
2022-08-31T03:17:08.859Z,1.55
2022-08-31T03:19:36.032Z,2.05
2022-08-31T03:22:09.759Z,2.25
2022-08-31T03:24:46.378Z,2.13
2022-08-31T03:27:20.563Z,2.13
2022-08-31T03:29:47.836Z,2.00
2022-08-31T03:32:15.012Z,2.38
2022-08-31T03:34:48.622Z,2.10
2022-08-31T03:37:15.763Z,1.80
2022-08-31T03:39:43.336Z,2.40
2022-08-31T03:42:16.590Z,1.70
2022-08-31T03:44:43.771Z,2.05
2022-08-31T03:47:11.052Z,2.25
2022-08-31T03:49:48.735Z,1.90
2022-08-31T03:52:16.090Z,2.22
2022-08-31T03:54:43.757Z,1.80
2022-08-31T03:59:45.075Z,2.20
2022-08-31T04:02:12.260Z,2.13
2022-08-31T04:04:45.601Z,2.28
2022-08-31T04:07:12.828Z,1.70
2022-08-31T04:09:39.976Z,1.77
2022-08-31T04:12:13.597Z,2.15
2022-08-31T04:14:41.058Z,2.00
2022-08-31T04:17:11.107Z,2.20
2022-08-31T04:19:45.771Z,2.00
2022-08-31T04:22:12.976Z,2.30
2022-08-31T04:24:52.587Z,2.33
2022-08-31T04:27:19.802Z,2.17
2022-08-31T04:29:47.008Z,2.15
2022-08-31T04:32:20.644Z,2.20
2022-08-31T04:34:47.890Z,2.35
2022-08-31T04:37:27.605Z,2.22
2022-08-31T04:39:57.007Z,2.10
2022-08-31T04:42:26.567Z,2.58
2022-08-31T04:45:00.730Z,2.08
2022-08-31T04:47:27.979Z,2.10
2022-08-31T04:49:55.118Z,2.28
2022-08-31T04:52:28.617Z,2.30
2022-08-31T04:54:55.972Z,2.30
2022-08-31T04:57:23.146Z,2.30
2022-08-31T04:59:56.643Z,2.30
2022-08-31T05:02:23.865Z,2.08
2022-08-31T05:04:51.038Z,2.53
2022-08-31T05:07:24.726Z,2.28
2022-08-31T05:09:51.940Z,1.90
2022-08-31T05:12:19.146Z,2.05
2022-08-31T05:14:54.737Z,2.28
2022-08-31T05:17:22.120Z,2.17
2022-08-31T05:19:49.331Z,1.80
2022-08-31T05:22:23.619Z,1.90
2022-08-31T05:24:57.601Z,2.33
2022-08-31T05:27:32.719Z,2.08
2022-08-31T05:30:00.054Z,2.40
2022-08-31T05:32:27.241Z,2.25
2022-08-31T05:35:00.622Z,2.17
2022-08-31T05:37:27.835Z,2.17
2022-08-31T05:39:55.089Z,2.40
2022-08-31T05:42:28.697Z,1.88
2022-08-31T05:44:55.949Z,1.83
2022-08-31T05:47:23.077Z,2.20
2022-08-31T05:49:56.650Z,2.15
2022-08-31T05:52:25.041Z,2.42
2022-08-31T05:54:52.563Z,1.80
2022-08-31T05:57:26.992Z,1.67
2022-08-31T05:59:54.324Z,1.70
2022-08-31T06:02:21.543Z,2.03
2022-08-31T06:04:55.731Z,1.90
2022-08-31T06:07:22.982Z,2.20
2022-08-31T06:09:50.644Z,2.20
2022-08-31T06:14:53.625Z,2.47
2022-08-31T06:17:20.876Z,2.08
2022-08-31T06:19:54.887Z,2.22
2022-08-31T06:22:23.451Z,2.60
2022-08-31T06:25:04.655Z,2.40
2022-08-31T06:27:31.924Z,2.58
2022-08-31T06:30:01.973Z,2.40
2022-08-31T06:32:39.845Z,2.30
2022-08-31T06:35:07.393Z,2.70
2022-08-31T06:37:34.524Z,2.78
2022-08-31T06:40:08.895Z,2.30
2022-08-31T06:42:36.143Z,2.45
2022-08-31T06:45:04.330Z,2.65
2022-08-31T06:47:38.769Z,2.63
2022-08-31T06:50:06.153Z,2.17
2022-08-31T06:52:38.243Z,2.38
2022-08-31T06:55:12.697Z,2.28
2022-08-31T06:57:40.001Z,2.53
2022-08-31T07:00:08.565Z,2.33
2022-08-31T07:02:42.925Z,2.05
2022-08-31T07:05:13.796Z,2.80
2022-08-31T07:07:49.740Z,2.55
2022-08-31T07:10:18.896Z,2.20
2022-08-31T07:12:46.137Z,2.35
2022-08-31T07:15:19.737Z,2.22
2022-08-31T07:17:48.096Z,2.65
2022-08-31T07:20:15.309Z,2.20
2022-08-31T09:37:41.224Z,1.02
2022-08-31T09:40:19.653Z,1.33
2022-08-31T09:43:29.254Z,0.95
2022-08-31T09:46:05.736Z,1.65
2022-08-31T09:49:00.283Z,1.23
2022-08-31T09:51:30.290Z,1.55
2022-08-31T09:54:47.359Z,1.00
2022-08-31T09:57:15.044Z,1.08
2022-08-31T10:02:38.299Z,1.70
2022-08-31T10:05:07.171Z,1.58
2022-08-31T10:07:51.227Z,1.50
2022-08-31T10:10:31.514Z,1.08
2022-08-31T10:13:16.168Z,1.02
2022-08-31T10:15:43.358Z,1.40
2022-08-31T10:18:23.268Z,1.10
2022-08-31T10:20:56.938Z,0.95
2022-08-31T10:23:40.242Z,1.27
2022-08-31T10:26:33.962Z,1.20
2022-08-31T10:29:11.379Z,1.15
2022-08-31T10:31:48.611Z,1.50
2022-08-31T10:34:47.287Z,1.10
2022-08-31T10:37:31.469Z,1.10
2022-08-31T10:40:06.314Z,0.82
2022-08-31T10:42:37.958Z,0.50
2022-08-31T10:45:19.259Z,0.47
2022-08-31T10:47:49.031Z,0.85
2022-08-31T10:50:27.277Z,0.73
2022-08-31T10:53:15.448Z,0.80
2022-08-31T10:55:58.385Z,0.73
2022-08-31T10:58:31.205Z,0.88
2022-08-31T11:01:05.280Z,0.90
2022-08-31T11:03:38.439Z,0.70
2022-08-31T11:06:31.165Z,0.57
2022-08-31T11:09:04.235Z,0.73
2022-08-31T11:11:44.350Z,0.90
2022-08-31T11:14:37.527Z,0.80
2022-08-31T11:17:11.830Z,1.30
2022-08-31T11:19:39.709Z,0.70
2022-08-31T11:24:42.371Z,0.60
2022-08-31T11:27:23.065Z,0.80
2022-08-31T11:30:15.295Z,0.82
2022-08-31T11:32:48.201Z,0.55
2022-08-31T11:35:30.657Z,0.77
2022-08-31T11:38:04.107Z,0.80
2022-08-31T11:40:48.334Z,0.80
2022-08-31T11:43:17.030Z,0.68
2022-08-31T11:45:44.324Z,0.55
2022-08-31T11:48:37.326Z,0.73
2022-08-31T11:51:09.649Z,0.70
2022-08-31T11:53:46.323Z,1.05
2022-08-31T11:56:15.337Z,0.93
2022-08-31T11:58:44.788Z,0.60
2022-08-31T12:01:18.275Z,0.52
2022-08-31T12:03:45.921Z,0.90
2022-08-31T12:06:44.354Z,0.70
2022-08-31T12:09:23.823Z,0.67
2022-08-31T12:12:00.266Z,0.82
2022-08-31T12:14:35.941Z,0.60
2022-08-31T12:17:16.226Z,0.60
2022-08-31T12:20:02.434Z,0.80
2022-08-31T12:22:55.367Z,0.63
2022-08-31T12:25:25.716Z,0.40
2022-08-31T12:28:13.334Z,0.50
2022-08-31T12:30:48.670Z,0.30
2022-08-31T12:33:25.262Z,0.65
2022-08-31T12:36:45.106Z,0.40
2022-08-31T12:39:33.361Z,0.50
2022-08-31T12:42:03.368Z,0.55
2022-08-31T12:44:32.447Z,0.40
2022-08-31T12:47:11.253Z,0.30
2022-08-31T12:49:45.063Z,0.28
2022-08-31T12:52:38.342Z,0.40
2022-08-31T12:55:09.051Z,0.30
2022-08-31T12:57:49.501Z,0.50
2022-08-31T13:00:24.680Z,0.52
2022-08-31T13:03:00.465Z,0.50
2022-08-31T13:05:34.812Z,0.40
2022-08-31T13:08:10.978Z,0.45
2022-08-31T13:10:38.999Z,0.40
2022-08-31T13:13:07.671Z,0.38
2022-08-31T13:15:46.285Z,0.43
2022-08-31T13:18:24.669Z,0.22
2022-08-31T13:21:10.272Z,0.47
2022-08-31T13:23:39.200Z,0.50
2022-08-31T13:26:27.522Z,0.40
2022-08-31T13:28:57.377Z,0.50
2022-08-31T13:31:27.145Z,0.88
2022-08-31T13:34:03.264Z,0.30
2022-08-31T13:37:00.124Z,0.50
2022-08-31T13:39:36.270Z,0.60
2022-08-31T13:42:06.046Z,0.75
2022-08-31T13:44:46.404Z,0.60
2022-08-31T13:47:27.497Z,0.40
2022-08-31T13:50:21.640Z,0.60
2022-08-31T13:53:22.913Z,0.70
2022-08-31T13:55:53.294Z,0.57
2022-08-31T13:58:31.517Z,0.30
2022-08-31T14:01:24.298Z,0.77
2022-08-31T14:03:58.126Z,0.70
2022-08-31T14:06:33.453Z,0.60
2022-08-31T14:09:05.201Z,0.30
2022-08-31T14:11:40.414Z,0.40
2022-08-31T14:14:09.880Z,0.52
2022-08-31T14:16:39.866Z,0.50
2022-08-31T14:19:18.453Z,0.60
2022-08-31T14:21:46.862Z,0.50
2022-08-31T14:24:14.115Z,0.90
2022-08-31T14:26:51.260Z,0.43
2022-08-31T14:29:18.571Z,0.50
2022-08-31T14:31:46.870Z,0.47
2022-08-31T14:34:33.379Z,0.40
2022-08-31T14:37:19.772Z,0.38
2022-08-31T14:39:57.253Z,0.50
2022-08-31T14:42:26.584Z,0.50
2022-08-31T14:44:56.692Z,0.50
2022-08-31T14:47:32.317Z,0.60
2022-08-31T14:50:05.779Z,0.30
2022-08-31T14:52:43.367Z,0.80
2022-08-31T14:55:11.216Z,0.57
2022-08-31T14:57:50.315Z,0.30
2022-08-31T15:00:21.927Z,0.60
2022-08-31T15:02:49.684Z,0.73
2022-08-31T15:05:24.299Z,0.68
2022-08-31T15:07:52.991Z,0.63
2022-08-31T15:10:20.920Z,0.55
2022-08-31T15:12:55.337Z,0.45
2022-08-31T15:15:22.876Z,0.68
2022-08-31T15:20:26.558Z,0.60
2022-08-31T15:22:53.888Z,0.47
2022-08-31T15:25:23.051Z,0.47
2022-08-31T15:27:58.445Z,0.68
2022-08-31T15:30:25.802Z,0.60
2022-08-31T15:33:05.474Z,0.50
2022-08-31T15:35:33.036Z,0.30
2022-08-31T15:38:15.345Z,0.60
2022-08-31T15:40:44.368Z,0.47
2022-08-31T15:43:22.290Z,0.40
2022-08-31T15:45:50.779Z,0.52
2022-08-31T15:48:43.351Z,0.45
2022-08-31T15:51:18.101Z,0.40
2022-08-31T15:54:18.402Z,0.40
2022-08-31T15:56:40.892Z,0.50
2022-08-31T16:01:43.899Z,0.57
2022-08-31T16:04:30.508Z,0.40
2022-08-31T16:07:00.855Z,0.50
2022-08-31T16:09:28.089Z,0.40
2022-08-31T16:12:02.503Z,0.63
2022-08-31T16:14:29.830Z,0.50
2022-08-31T16:16:59.596Z,0.50
2022-08-31T16:19:35.937Z,0.50
2022-08-31T16:22:04.447Z,0.40
2022-08-31T16:24:42.374Z,0.57
2022-08-31T16:27:11.971Z,0.70
2022-08-31T16:29:40.168Z,0.50
2022-08-31T16:32:15.361Z,0.43
2022-08-31T16:34:42.866Z,0.57
2022-08-31T16:39:57.304Z,0.52
2022-08-31T16:42:32.442Z,0.65
2022-08-31T16:45:02.348Z,0.73
2022-08-31T16:47:30.491Z,0.70
2022-08-31T16:52:32.659Z,0.57
2022-08-31T16:54:59.834Z,0.75
2022-08-31T16:57:35.593Z,0.68
2022-08-31T17:00:04.285Z,0.43
2022-08-31T17:02:33.026Z,0.50
2022-08-31T17:05:11.605Z,0.80
2022-08-31T17:07:42.863Z,0.70
2022-08-31T17:10:10.284Z,0.65
2022-08-31T17:12:45.537Z,0.70
2022-08-31T17:15:13.948Z,0.50
2022-08-31T17:17:41.550Z,0.80
2022-08-31T17:22:48.539Z,0.68
2022-08-31T17:25:22.624Z,0.70
2022-08-31T17:27:52.792Z,0.50
2022-08-31T17:30:21.509Z,0.75
2022-08-31T17:32:55.722Z,0.65
2022-08-31T17:35:24.008Z,0.52
2022-08-31T17:38:05.355Z,0.70
2022-08-31T17:40:32.767Z,0.70
2022-08-31T17:43:00.162Z,0.70
2022-08-31T17:45:34.373Z,0.60
2022-08-31T17:48:01.698Z,0.90
2022-08-31T17:50:28.862Z,0.70
2022-08-31T17:53:03.351Z,0.80
2022-08-31T17:55:38.238Z,0.73
2022-08-31T17:58:13.554Z,0.70
2022-08-31T18:00:40.778Z,0.82
2022-08-31T18:03:07.938Z,0.80
2022-08-31T18:05:47.214Z,0.80
2022-08-31T18:08:14.548Z,0.60
2022-08-31T18:10:53.609Z,0.85
2022-08-31T18:13:21.800Z,0.80
2022-08-31T18:15:58.608Z,0.82
2022-08-31T18:18:25.886Z,0.90
2022-08-31T18:20:53.036Z,1.00
2022-08-31T18:23:35.179Z,0.70
2022-08-31T18:26:02.816Z,0.88
2022-08-31T18:28:36.508Z,1.08
2022-08-31T18:31:07.793Z,0.60
2022-08-31T18:33:43.360Z,0.80
2022-08-31T18:36:11.924Z,1.10
2022-08-31T18:38:59.430Z,0.93
2022-08-31T18:41:50.623Z,1.05
2022-08-31T18:44:45.383Z,0.68
2022-08-31T18:47:22.155Z,0.88
2022-08-31T18:50:01.427Z,0.93
2022-08-31T18:52:28.781Z,0.90
2022-08-31T18:54:57.635Z,0.90
2022-08-31T18:57:32.421Z,0.93
2022-08-31T19:00:04.929Z,1.02
2022-08-31T19:02:41.366Z,1.00
2022-08-31T19:05:09.607Z,0.80
2022-08-31T19:07:36.726Z,1.23
2022-08-31T19:10:13.105Z,1.00
2022-08-31T19:12:42.783Z,0.95
2022-08-31T19:15:11.186Z,1.02
2022-08-31T19:17:47.600Z,1.30
2022-08-31T19:20:15.203Z,0.90
2022-08-31T19:22:42.347Z,1.10
2022-08-31T19:25:18.559Z,1.23
2022-08-31T19:27:51.204Z,1.00
2022-08-31T19:30:28.367Z,0.90
2022-08-31T19:32:56.604Z,1.10
2022-08-31T19:35:27.023Z,1.10
2022-08-31T19:38:04.833Z,1.00
2022-08-31T19:40:39.190Z,0.95
2022-08-31T19:46:16.983Z,1.13
2022-08-31T19:48:55.609Z,0.93
2022-08-31T19:51:24.361Z,1.10
2022-08-31T19:53:58.475Z,1.20
2022-08-31T19:56:28.874Z,1.20
2022-08-31T19:59:05.419Z,1.45
2022-08-31T20:01:33.960Z,1.33
2022-08-31T20:04:02.625Z,1.08
2022-08-31T20:06:41.781Z,1.17
2022-08-31T20:09:10.985Z,1.33
2022-08-31T20:11:53.162Z,1.33
2022-08-31T20:14:21.325Z,1.30
2022-08-31T20:16:55.377Z,1.20
2022-08-31T20:19:36.702Z,1.35
2022-08-31T20:22:06.918Z,1.30
2022-08-31T20:24:45.058Z,1.30
2022-08-31T20:27:16.292Z,1.38
2022-08-31T20:29:44.064Z,1.20
2022-08-31T20:32:17.502Z,1.42
2022-08-31T20:34:44.996Z,1.35
2022-08-31T20:37:32.553Z,1.20
2022-08-31T20:39:59.786Z,1.33
2022-08-31T20:42:27.348Z,1.45
2022-08-31T20:47:48.787Z,1.40
2022-08-31T20:50:23.457Z,0.65
2022-08-31T20:52:51.306Z,1.38
2022-08-31T20:55:18.483Z,1.52
2022-08-31T20:57:53.583Z,1.67
2022-08-31T21:00:20.909Z,1.67
2022-08-31T21:02:49.874Z,1.90
2022-08-31T21:05:38.039Z,1.55
2022-08-31T21:08:06.069Z,1.83
2022-08-31T21:10:42.579Z,1.73
2022-08-31T21:13:11.650Z,1.70
2022-08-31T21:15:52.543Z,1.63
2022-08-31T21:18:19.958Z,1.80
2022-08-31T21:20:47.260Z,1.80
2022-08-31T21:23:21.695Z,1.80
2022-08-31T21:25:49.002Z,1.95
2022-08-31T21:28:17.752Z,1.80
2022-08-31T21:30:53.498Z,1.90
2022-08-31T21:33:20.936Z,1.95
2022-08-31T21:35:48.308Z,1.42
2022-08-31T21:38:22.526Z,1.77
2022-08-31T21:40:50.403Z,1.73
2022-08-31T21:43:17.925Z,1.60
2022-08-31T21:45:55.187Z,2.15
2022-08-31T21:48:25.853Z,1.77
2022-08-31T21:51:00.569Z,1.90
2022-08-31T21:53:27.872Z,1.80
2022-08-31T21:55:55.045Z,2.00
2022-08-31T21:58:28.518Z,1.90
2022-08-31T22:00:56.331Z,2.38
2022-08-31T22:03:23.470Z,1.88
2022-08-31T22:05:57.476Z,1.70
2022-08-31T22:08:26.057Z,1.75
2022-08-31T22:10:53.473Z,1.77
2022-08-31T22:13:27.411Z,2.00
2022-08-31T22:15:56.622Z,1.63
2022-08-31T22:18:59.586Z,1.73
2022-08-31T22:21:22.436Z,1.77
2022-08-31T22:23:51.710Z,1.77
2022-08-31T22:26:19.536Z,1.80
2022-08-31T22:28:53.428Z,1.60
2022-08-31T22:31:21.222Z,1.55
2022-08-31T22:33:49.622Z,1.58
2022-08-31T22:36:31.890Z,1.85
2022-08-31T22:39:21.323Z,1.77
2022-08-31T22:41:55.514Z,1.58
2022-08-31T22:44:24.939Z,1.90
2022-08-31T22:46:52.857Z,1.98
2022-08-31T22:49:26.567Z,2.00
2022-08-31T22:51:54.604Z,1.95
2022-08-31T22:54:22.017Z,2.00
2022-08-31T22:56:56.440Z,1.92
2022-08-31T22:59:28.193Z,2.13
2022-08-31T23:02:03.935Z,1.90
2022-08-31T23:04:33.302Z,2.05
2022-08-31T23:07:01.481Z,2.28
2022-08-31T23:09:37.641Z,2.20
2022-08-31T23:12:05.485Z,2.17
2022-08-31T23:14:33.136Z,2.15
2022-08-31T23:19:37.416Z,1.90
2022-08-31T23:22:15.583Z,1.77
2022-08-31T23:24:46.996Z,2.08
2022-08-31T23:27:25.553Z,1.98
2022-08-31T23:29:55.939Z,2.40
2022-08-31T23:32:32.463Z,2.50
2022-08-31T23:34:59.656Z,1.90
2022-08-31T23:37:46.454Z,1.92
2022-08-31T23:40:16.204Z,2.10
2022-08-31T23:42:43.643Z,1.80
2022-08-31T23:45:19.516Z,2.30
2022-08-31T23:50:16.494Z,1.90
2022-08-31T23:52:50.568Z,2.50
2022-08-31T23:55:18.894Z,2.20
2022-08-31T23:57:48.508Z,1.98
